Time;durP1;ratioP1;P1;durP2;ratioP2;P2;SDS_P1;SDS_P2;PMS_P1;PMS_P2;Temp;Humidity;BMP_temperature;BMP_pressure;BME280_temperature;BME280_humidity;BME280_pressure;Samples;Min_cycle;Max_cycle;Signal;HPM_P1;HPM_P2
2021/06/10 00:00:38;;;;;;;7.57;2.05;;;;;;;22.97;47.90;102079.19;5072112;28;20086;-57
2021/06/10 00:03:04;;;;;;;6.68;2.13;;;;;;;22.96;47.93;102077.50;5072872;28;20024;-57
2021/06/10 00:05:30;;;;;;;7.47;1.90;;;;;;;22.94;47.87;102071.44;5073159;28;20024;-57
2021/06/10 00:07:58;;;;;;;4.65;1.83;;;;;;;22.95;47.61;102067.84;5072253;28;20060;-58
2021/06/10 00:10:25;;;;;;;6.05;2.10;;;;;;;22.94;47.72;102063.47;5072899;28;20396;-57
2021/06/10 00:12:52;;;;;;;3.95;1.80;;;;;;;22.93;47.92;102065.31;5073206;28;20031;-58
2021/06/10 00:15:22;;;;;;;5.25;2.10;;;;;;;22.92;47.76;102062.78;5071972;28;20025;-58
2021/06/10 00:17:47;;;;;;;8.98;1.90;;;;;;;22.93;47.97;102067.13;5072761;28;20028;-58
2021/06/10 00:20:18;;;;;;;4.75;1.95;;;;;;;22.93;47.82;102064.47;5072669;28;20421;-58
2021/06/10 00:22:44;;;;;;;7.18;2.00;;;;;;;22.91;47.94;102067.25;5072348;28;20024;-56
2021/06/10 00:25:10;;;;;;;4.93;1.73;;;;;;;22.92;47.72;102071.63;5072589;28;20021;-57
2021/06/10 00:27:38;;;;;;;6.30;1.90;;;;;;;22.91;47.89;102077.88;5072682;28;20078;-57
2021/06/10 00:30:06;;;;;;;4.15;1.80;;;;;;;22.91;47.80;102075.22;5071499;28;20486;-57
2021/06/10 00:32:31;;;;;;;5.03;2.10;;;;;;;22.90;47.85;102081.50;5072653;28;20337;-56
2021/06/10 00:34:59;;;;;;;3.70;1.65;;;;;;;22.91;47.71;102080.53;5071930;28;20024;-57
2021/06/10 00:37:25;;;;;;;4.57;1.80;;;;;;;22.90;47.90;102075.34;5072375;28;20032;-57
2021/06/10 00:39:50;;;;;;;4.75;1.63;;;;;;;22.90;47.85;102078.00;5072354;28;20353;-57
2021/06/10 00:42:16;;;;;;;4.40;1.88;;;;;;;22.89;47.90;102082.50;5071292;28;20025;-57
2021/06/10 00:44:41;;;;;;;5.07;1.90;;;;;;;22.89;47.77;102087.81;5072531;28;20056;-57
2021/06/10 00:47:06;;;;;;;4.63;1.90;;;;;;;22.88;47.95;102074.66;5072132;28;20028;-57
2021/06/10 00:49:32;;;;;;;5.22;2.05;;;;;;;22.86;47.93;102074.78;5071554;28;20025;-57
2021/06/10 00:51:57;;;;;;;3.97;1.73;;;;;;;22.87;47.87;102071.13;5072331;28;20124;-57
2021/06/10 00:54:23;;;;;;;5.55;1.80;;;;;;;22.87;47.72;102079.09;5072181;28;20016;-58
2021/06/10 00:56:49;;;;;;;6.53;2.13;;;;;;;22.87;47.85;102075.59;5071579;28;20029;-57
2021/06/10 00:59:14;;;;;;;3.35;1.67;;;;;;;22.86;47.83;102074.78;5071863;28;20024;-57
2021/06/10 01:01:40;;;;;;;4.32;1.80;;;;;;;22.87;47.88;102070.28;5072115;28;20027;-57
2021/06/10 01:04:05;;;;;;;6.40;2.08;;;;;;;22.86;47.89;102072.13;5071393;28;20044;-57
2021/06/10 01:06:35;;;;;;;4.38;2.25;;;;;;;22.85;47.81;102070.41;5072445;28;20472;-57
2021/06/10 01:09:07;;;;;;;3.60;1.90;;;;;;;22.84;47.85;102068.72;5071900;28;20093;-57
2021/06/10 01:11:46;;;;;;;4.85;1.90;;;;;;;22.84;47.81;102066.06;5071398;28;20115;-58
2021/06/10 01:14:29;;;;;;;4.45;2.00;;;;;;;22.84;47.83;102071.38;5072120;28;20171;-58
2021/06/10 01:16:58;;;;;;;6.57;1.90;;;;;;;22.83;47.75;102070.53;5072166;28;20016;-57
2021/06/10 01:19:45;;;;;;;4.35;1.85;;;;;;;22.82;47.72;102076.81;5070952;28;20021;-56
2021/06/10 01:22:29;;;;;;;3.65;1.70;;;;;;;22.82;47.51;102075.97;5071766;28;20059;-57
2021/06/10 01:25:22;;;;;;;4.93;1.60;;;;;;;22.81;47.92;102077.81;5071551;28;20020;-57
2021/06/10 01:27:53;;;;;;;4.25;2.00;;;;;;;22.80;47.83;102072.63;5072216;28;20112;-58
2021/06/10 01:30:25;;;;;;;4.25;1.85;;;;;;;22.77;47.68;102071.03;5071248;28;20029;-57
2021/06/10 01:32:54;;;;;;;4.35;1.80;;;;;;;22.76;47.76;102068.50;5071269;28;20107;-57
2021/06/10 01:35:24;;;;;;;4.38;1.90;;;;;;;22.79;47.73;102070.91;5071718;28;20029;-57
2021/06/10 01:37:55;;;;;;;3.63;1.60;;;;;;;22.78;47.74;102071.88;5071864;28;20026;-57
2021/06/10 01:40:23;;;;;;;5.47;1.92;;;;;;;22.76;47.73;102066.69;5071085;28;20021;-57
2021/06/10 01:42:49;;;;;;;3.30;1.70;;;;;;;22.76;47.59;102068.50;5071915;28;20017;-57
2021/06/10 01:45:16;;;;;;;3.70;1.83;;;;;;;22.77;47.61;102067.53;5070805;28;20024;-57
2021/06/10 01:47:44;;;;;;;4.97;1.90;;;;;;;22.76;47.89;102064.03;5071956;28;20056;-56
2021/06/10 01:50:11;;;;;;;4.90;2.45;;;;;;;22.75;47.57;102054.38;5071510;28;20036;-57
2021/06/10 01:52:39;;;;;;;3.30;1.92;;;;;;;22.76;47.65;102058.72;5070925;28;20489;-57
2021/06/10 01:55:08;;;;;;;6.38;1.83;;;;;;;22.77;47.56;102059.56;5053375;28;20445;-57
2021/06/10 01:57:36;;;;;;;3.67;1.67;;;;;;;22.75;47.38;102058.88;5071360;28;20115;-58
2021/06/10 02:00:03;;;;;;;5.15;2.00;;;;;;;22.76;47.57;102063.19;5070468;28;20528;-57
2021/06/10 02:02:36;;;;;;;4.65;1.70;;;;;;;22.74;47.49;102062.47;5071746;28;20043;-57
2021/06/10 02:05:04;;;;;;;3.30;1.80;;;;;;;22.74;47.49;102065.97;5071405;28;20020;-57
2021/06/10 02:07:30;;;;;;;3.50;1.77;;;;;;;22.75;47.60;102064.19;5070718;28;20060;-57
2021/06/10 02:09:56;;;;;;;5.15;2.00;;;;;;;22.74;47.61;102063.31;5071697;28;20056;-57
2021/06/10 02:12:24;;;;;;;4.07;2.40;;;;;;;22.72;47.45;102065.25;5053353;28;20028;-57
2021/06/10 02:14:52;;;;;;;4.25;2.05;;;;;;;22.73;47.50;102059.00;5071130;28;20021;-57
2021/06/10 02:17:18;;;;;;;3.35;1.70;;;;;;;22.74;47.49;102054.50;5071179;28;20090;-57
2021/06/10 02:19:43;;;;;;;4.78;2.00;;;;;;;22.73;47.36;102063.44;5071379;28;20372;-57
2021/06/10 02:22:15;;;;;;;6.57;1.98;;;;;;;22.72;47.45;102056.47;5070598;28;20051;-57
2021/06/10 02:24:40;;;;;;;5.30;1.90;;;;;;;22.73;47.42;102055.47;5071270;28;20079;-57
2021/06/10 02:27:05;;;;;;;4.80;1.83;;;;;;;22.70;47.38;102051.28;5071029;28;20504;-57
2021/06/10 02:29:31;;;;;;;4.18;1.80;;;;;;;22.71;47.34;102057.41;5070805;28;20598;-57
2021/06/10 02:31:56;;;;;;;3.40;1.70;;;;;;;22.71;47.31;102049.44;5071199;28;20025;-56
2021/06/10 02:34:21;;;;;;;5.22;2.03;;;;;;;22.71;47.43;102060.06;5071233;28;20315;-57
2021/06/10 02:36:50;;;;;;;5.35;1.90;;;;;;;22.71;47.43;102060.06;5070678;28;20048;-57
2021/06/10 02:39:17;;;;;;;4.20;2.10;;;;;;;22.70;47.29;102051.28;5069589;28;20123;-57
2021/06/10 02:41:48;;;;;;;4.68;2.10;;;;;;;22.68;47.47;102049.69;5070819;28;20120;-57
2021/06/10 02:44:14;;;;;;;3.50;1.77;;;;;;;22.69;47.45;102054.88;5073929;28;20032;-58
2021/06/10 02:46:41;;;;;;;5.03;1.90;;;;;;;22.69;47.40;102048.75;5074774;28;20035;-57
2021/06/10 02:49:11;;;;;;;4.32;2.03;;;;;;;22.68;47.35;102044.38;5073626;28;20043;-57
2021/06/10 02:51:37;;;;;;;4.55;2.08;;;;;;;22.69;47.37;102051.41;5074369;28;20612;-57
2021/06/10 02:54:05;;;;;;;4.55;2.15;;;;;;;22.69;47.14;102051.41;5073709;28;20123;-57
2021/06/10 02:56:31;;;;;;;4.88;2.00;;;;;;;22.67;47.21;102046.22;5073762;28;20027;-57
2021/06/10 02:59:02;;;;;;;5.95;2.15;;;;;;;22.67;47.39;102043.56;5074214;28;20056;-58
2021/06/10 03:01:30;;;;;;;5.05;2.00;;;;;;;22.66;47.33;102044.50;5074325;28;20021;-58
2021/06/10 03:03:56;;;;;;;4.53;1.88;;;;;;;22.66;47.23;102035.69;5073491;28;20104;-58
2021/06/10 03:06:22;;;;;;;6.70;2.10;;;;;;;22.65;47.34;102034.84;5073994;28;20451;-57
2021/06/10 03:08:52;;;;;;;5.15;2.05;;;;;;;22.63;47.31;102031.47;5074159;28;20090;-57
2021/06/10 03:11:23;;;;;;;4.15;2.08;;;;;;;22.64;47.27;102039.31;5073446;28;20024;-57
2021/06/10 03:13:49;;;;;;;5.30;2.25;;;;;;;22.65;47.40;102034.84;5074212;28;20032;-57
2021/06/10 03:16:15;;;;;;;4.57;2.00;;;;;;;22.64;47.29;102033.16;5073879;28;20042;-57
2021/06/10 03:18:44;;;;;;;4.50;2.10;;;;;;;22.64;47.36;102036.66;5073217;28;20029;-57
2021/06/10 03:21:10;;;;;;;4.80;2.15;;;;;;;22.62;47.25;102032.44;5073569;28;20107;-57
2021/06/10 03:23:36;;;;;;;5.90;1.80;;;;;;;22.63;47.30;102032.31;5056086;28;20544;-57
2021/06/10 03:26:03;;;;;;;4.38;1.98;;;;;;;22.64;47.22;102025.19;5073014;28;20491;-57
2021/06/10 03:28:29;;;;;;;4.95;2.03;;;;;;;22.63;47.35;102021.69;5073957;28;20375;-57
2021/06/10 03:30:55;;;;;;;3.85;2.00;;;;;;;22.62;47.22;102013.84;5073223;28;20020;-57
2021/06/10 03:33:22;;;;;;;5.97;2.00;;;;;;;22.62;47.31;102016.50;5073595;28;20024;-57
2021/06/10 03:35:48;;;;;;;5.13;2.10;;;;;;;22.61;47.41;102014.81;5073753;28;20101;-57
2021/06/10 03:38:14;;;;;;;4.30;1.90;;;;;;;22.60;47.14;102008.66;5072829;28;20052;-57
2021/06/10 03:40:42;;;;;;;4.07;2.10;;;;;;;22.61;46.96;102013.00;5073929;28;20081;-57
2021/06/10 03:43:08;;;;;;;5.82;2.03;;;;;;;22.60;47.16;102011.31;5073366;28;20073;-57
2021/06/10 03:45:34;;;;;;;4.47;2.10;;;;;;;22.59;47.31;102009.63;5073093;28;20099;-57
2021/06/10 03:47:59;;;;;;;3.35;1.98;;;;;;;22.59;47.36;102006.16;5073573;28;20024;-57
2021/06/10 03:50:46;;;;;;;5.28;2.25;;;;;;;22.59;47.23;102014.94;5073147;28;20434;-57
2021/06/10 03:53:11;;;;;;;5.25;1.98;;;;;;;22.60;47.32;102015.78;5065033;28;20032;-57
2021/06/10 03:55:37;;;;;;;4.05;2.15;;;;;;;22.58;47.18;102012.41;5073377;28;20540;-57
2021/06/10 03:58:02;;;;;;;4.20;2.05;;;;;;;22.59;47.27;102004.31;5073000;28;20511;-57
2021/06/10 04:00:28;;;;;;;5.63;2.47;;;;;;;22.60;47.14;102010.47;5072556;28;20116;-58
2021/06/10 04:02:56;;;;;;;5.60;2.40;;;;;;;22.59;47.26;102014.13;5073177;28;20021;-57
2021/06/10 04:05:23;;;;;;;5.70;2.20;;;;;;;22.59;47.33;102022.91;5073150;28;20106;-57
2021/06/10 04:07:53;;;;;;;6.85;2.53;;;;;;;22.45;47.28;102007.28;5072465;28;20102;-57
2021/06/10 04:10:18;;;;;;;4.65;2.38;;;;;;;22.56;47.11;102020.50;5072782;28;20025;-57
2021/06/10 04:12:46;;;;;;;4.60;2.10;;;;;;;22.57;47.33;102016.03;5072970;28;20044;-57
2021/06/10 04:15:12;;;;;;;4.38;2.33;;;;;;;22.58;47.19;102025.69;5071892;28;20273;-57
2021/06/10 04:17:38;;;;;;;4.55;2.20;;;;;;;22.57;47.28;102024.88;5073069;28;20035;-57
2021/06/10 04:20:07;;;;;;;4.28;2.30;;;;;;;22.55;47.47;102015.31;5072005;28;20025;-58
2021/06/10 04:22:32;;;;;;;5.85;2.30;;;;;;;22.57;47.29;102022.22;5072640;28;20081;-57
2021/06/10 04:25:00;;;;;;;4.00;2.33;;;;;;;22.57;47.24;102024.88;5072793;28;20025;-57
2021/06/10 04:27:25;;;;;;;4.65;2.20;;;;;;;22.57;47.34;102014.25;5071707;28;20028;-57
2021/06/10 04:29:51;;;;;;;4.72;2.65;;;;;;;22.57;47.27;102014.25;5071616;28;20564;-56
2021/06/10 04:32:16;;;;;;;5.40;2.10;;;;;;;22.57;47.25;102010.72;5072494;28;20016;-57
2021/06/10 04:34:42;;;;;;;4.83;2.30;;;;;;;22.55;47.28;102005.53;5071973;28;20043;-57
2021/06/10 04:37:07;;;;;;;5.17;2.20;;;;;;;22.56;47.27;102006.41;5071825;28;20318;-57
2021/06/10 04:39:32;;;;;;;3.70;2.00;;;;;;;22.57;47.47;102013.38;5072343;28;20308;-57
2021/06/10 04:41:57;;;;;;;3.83;2.10;;;;;;;22.57;47.17;102016.03;5071619;28;20613;-58
2021/06/10 04:44:26;;;;;;;4.13;2.45;;;;;;;22.57;47.40;102018.69;5071923;28;20031;-57
2021/06/10 04:46:51;;;;;;;5.55;2.47;;;;;;;22.56;47.20;102009.06;5072371;28;20021;-57
2021/06/10 04:49:17;;;;;;;4.50;2.20;;;;;;;22.56;47.33;102012.53;5071384;28;20028;-57
2021/06/10 04:51:42;;;;;;;4.55;2.15;;;;;;;22.56;47.46;102012.53;5072376;28;20103;-57
2021/06/10 04:54:07;;;;;;;4.68;2.20;;;;;;;22.55;47.43;102004.69;5071980;28;20124;-57
2021/06/10 04:56:33;;;;;;;5.25;2.50;;;;;;;22.58;47.41;102023.03;5071389;28;20021;-58
2021/06/10 04:58:58;;;;;;;3.88;2.28;;;;;;;22.58;47.50;102015.06;5071948;28;20094;-58
2021/06/10 05:01:24;;;;;;;4.38;2.22;;;;;;;22.56;47.39;102015.19;5072027;28;20025;-56
2021/06/10 05:03:49;;;;;;;4.68;2.17;;;;;;;22.56;47.49;102014.38;5071506;28;20364;-57
2021/06/10 05:06:14;;;;;;;4.10;2.33;;;;;;;22.54;47.49;102005.66;5070852;28;20573;-57
2021/06/10 05:08:40;;;;;;;4.18;2.20;;;;;;;22.57;47.41;102010.72;5071939;28;20053;-57
2021/06/10 05:11:08;;;;;;;4.00;2.20;;;;;;;22.57;47.48;102006.28;5070933;28;20044;-57
2021/06/10 05:13:33;;;;;;;4.32;2.40;;;;;;;22.57;47.39;102008.06;5071953;28;20058;-57
2021/06/10 05:15:58;;;;;;;4.97;2.30;;;;;;;22.55;47.52;102002.88;5071965;28;20115;-57
2021/06/10 05:18:24;;;;;;;3.67;2.10;;;;;;;22.57;47.45;101997.44;5070893;28;20292;-57
2021/06/10 05:20:49;;;;;;;5.27;2.20;;;;;;;22.59;47.54;101998.19;5071910;28;20025;-58
2021/06/10 05:23:15;;;;;;;4.22;2.22;;;;;;;22.58;47.40;101993.81;5071856;28;20265;-58
2021/06/10 05:25:41;;;;;;;3.80;2.30;;;;;;;22.58;47.64;102001.78;5071519;28;20096;-58
2021/06/10 05:28:06;;;;;;;5.57;2.33;;;;;;;22.57;47.33;101995.66;5071455;28;20078;-57
2021/06/10 05:30:32;;;;;;;4.95;2.45;;;;;;;22.58;47.58;101992.00;5071210;28;20043;-57
2021/06/10 05:32:57;;;;;;;5.20;2.63;;;;;;;22.58;47.69;101997.31;5071852;28;20362;-58
2021/06/10 05:35:22;;;;;;;4.72;2.20;;;;;;;22.59;47.57;101999.00;5071562;28;20056;-57
2021/06/10 05:37:48;;;;;;;4.53;2.40;;;;;;;22.59;47.60;101998.19;5070945;28;20067;-59
2021/06/10 05:40:14;;;;;;;3.65;2.25;;;;;;;22.61;47.55;102013.00;5071317;28;20138;-57
2021/06/10 05:42:42;;;;;;;4.90;2.60;;;;;;;22.60;47.39;102019.28;5071538;28;20060;-56
2021/06/10 05:45:08;;;;;;;4.70;2.92;;;;;;;22.59;47.73;102016.78;5070712;28;20078;-57
2021/06/10 05:47:34;;;;;;;5.85;3.40;;;;;;;22.56;47.88;102025.00;5071408;28;20025;-56
2021/06/10 05:49:59;;;;;;;4.53;3.30;;;;;;;22.51;48.30;102013.88;5071777;28;20067;-57
2021/06/10 05:52:25;;;;;;;6.95;3.65;;;;;;;22.49;48.16;102014.00;5070603;28;20166;-57
2021/06/10 05:54:52;;;;;;;6.45;3.17;;;;;;;22.48;48.31;102016.78;5071594;28;20549;-59
2021/06/10 05:57:17;;;;;;;5.97;3.83;;;;;;;22.46;48.19;102019.56;5071051;28;20021;-58
2021/06/10 05:59:47;;;;;;;4.78;3.47;;;;;;;22.44;48.04;102019.69;5071101;28;20116;-58
2021/06/10 06:02:14;;;;;;;8.13;4.13;;;;;;;22.45;48.00;102026.69;5071268;28;20038;-59
2021/06/10 06:04:40;;;;;;;6.47;3.80;;;;;;;22.44;47.94;102018.84;5071467;28;20506;-57
2021/06/10 06:07:06;;;;;;;6.03;3.85;;;;;;;22.45;47.77;102026.69;5070479;28;20020;-57
2021/06/10 06:09:34;;;;;;;5.85;3.83;;;;;;;22.39;47.99;102019.22;5071220;28;20044;-58
2021/06/10 06:11:59;;;;;;;9.20;3.72;;;;;;;22.45;47.87;102028.53;5071410;28;20033;-59
2021/06/10 06:14:31;;;;;;;4.90;3.08;;;;;;;22.44;47.99;102032.97;5070246;28;20028;-57
2021/06/10 06:16:57;;;;;;;6.25;3.60;;;;;;;22.44;47.66;102025.00;5072555;28;20442;-57
2021/06/10 06:19:23;;;;;;;6.10;3.10;;;;;;;22.45;47.79;102034.66;5074897;28;20116;-58
2021/06/10 06:21:48;;;;;;;5.18;3.25;;;;;;;22.47;47.93;102031.88;5074474;28;20482;-56
2021/06/10 06:24:14;;;;;;;6.28;2.95;;;;;;;22.49;47.95;102029.09;5074810;28;20020;-56
2021/06/10 06:26:39;;;;;;;4.70;2.80;;;;;;;22.49;47.93;102035.25;5074561;28;20031;-58
2021/06/10 06:29:05;;;;;;;6.18;3.00;;;;;;;22.50;48.14;102034.28;5074858;28;20048;-58
2021/06/10 06:31:31;;;;;;;5.90;2.97;;;;;;;22.53;48.06;102030.56;5075356;28;20025;-60
2021/06/10 06:33:57;;;;;;;5.07;2.97;;;;;;;22.53;48.21;102030.56;5074425;28;20139;-58
2021/06/10 06:36:23;;;;;;;4.97;3.00;;;;;;;22.52;48.47;102020.88;5074889;28;20085;-60
2021/06/10 06:38:51;;;;;;;5.47;2.53;;;;;;;22.54;48.39;102024.25;5074946;28;20111;-58
2021/06/10 06:41:17;;;;;;;5.07;2.75;;;;;;;22.57;48.77;102024.88;5074144;28;20093;-58
2021/06/10 06:43:42;;;;;;;4.00;2.47;;;;;;;22.60;48.59;102029.91;5075089;28;20481;-61
2021/06/10 06:46:11;;;;;;;5.15;2.70;;;;;;;22.64;48.55;102031.34;5074603;28;20429;-58
2021/06/10 06:48:37;;;;;;;6.60;2.70;;;;;;;22.64;48.51;102028.69;5073651;28;20042;-59
2021/06/10 06:51:04;;;;;;;6.95;3.00;;;;;;;22.68;48.52;102029.28;5074634;28;20414;-58
2021/06/10 06:53:30;;;;;;;5.80;4.05;;;;;;;22.66;47.86;102027.72;5073325;28;20063;-57
2021/06/10 06:55:56;;;;;;;6.60;4.32;;;;;;;22.62;47.91;102027.97;5074017;28;20048;-58
2021/06/10 06:58:25;;;;;;;7.03;4.43;;;;;;;22.55;47.46;102025.94;5074493;28;20035;-57
2021/06/10 07:00:50;;;;;;;6.85;4.13;;;;;;;22.53;47.56;102034.03;5074724;28;20021;-58
2021/06/10 07:03:15;;;;;;;7.43;3.90;;;;;;;22.50;47.91;102033.47;5073932;28;20082;-58
2021/06/10 07:05:41;;;;;;;9.82;4.10;;;;;;;22.46;47.53;102039.03;5075096;28;20016;-58
2021/06/10 07:08:06;;;;;;;8.27;4.78;;;;;;;22.47;47.97;102039.84;5075754;28;20067;-59
2021/06/10 07:10:32;;;;;;;6.05;3.80;;;;;;;22.44;47.69;102035.63;5074075;28;20123;-59
2021/06/10 07:12:57;;;;;;;7.25;4.30;;;;;;;22.45;47.65;102036.47;5075140;28;20080;-58
2021/06/10 07:15:22;;;;;;;6.07;3.83;;;;;;;22.43;48.08;102039.25;5078226;28;20048;-67
2021/06/10 07:17:53;;;;;;;5.67;3.20;;;;;;;22.36;48.06;102019.47;5074965;28;20324;-58
2021/06/10 07:20:19;;;;;;;6.40;3.00;;;;;;;22.52;48.08;102042.13;5076412;28;20269;-59
2021/06/10 07:22:44;;;;;;;4.78;2.55;;;;;;;22.54;48.13;102037.53;5075622;28;20030;-59
2021/06/10 07:25:10;;;;;;;4.57;3.00;;;;;;;22.59;48.08;102036.19;5074731;28;20202;-59
2021/06/10 07:27:53;;;;;;;5.35;2.60;;;;;;;22.64;48.02;102036.66;5075527;28;20024;-59
2021/06/10 07:30:21;;;;;;;5.80;3.28;;;;;;;22.67;47.86;102037.38;5075479;28;20081;-58
2021/06/10 07:32:49;;;;;;;5.90;2.97;;;;;;;22.68;47.81;102042.56;5075986;28;20377;-59
2021/06/10 07:35:21;;;;;;;5.32;2.92;;;;;;;22.67;47.77;102048.88;5076371;28;20021;-60
2021/06/10 07:37:51;;;;;;;5.45;3.10;;;;;;;22.72;47.85;102056.47;5074706;28;20024;-59
2021/06/10 07:40:18;;;;;;;4.90;2.90;;;;;;;22.73;47.72;102056.34;5077800;28;20020;-58
2021/06/10 07:42:44;;;;;;;4.35;2.70;;;;;;;22.73;47.24;102059.00;5075597;28;20024;-59
2021/06/10 07:45:10;;;;;;;6.25;2.90;;;;;;;22.74;47.23;102060.66;5074544;28;20025;-60
2021/06/10 07:47:35;;;;;;;7.57;3.28;;;;;;;22.78;47.03;102061.25;5074623;28;20138;-58
2021/06/10 07:50:07;;;;;;;6.05;2.70;;;;;;;22.78;47.15;102055.94;5075985;28;20101;-59
2021/06/10 07:52:33;;;;;;;5.30;2.60;;;;;;;22.86;47.52;102061.47;5075020;28;20117;-59
2021/06/10 07:54:58;;;;;;;5.93;2.95;;;;;;;22.86;47.01;102060.63;5073483;28;20415;-58
2021/06/10 07:57:23;;;;;;;6.13;2.70;;;;;;;22.86;47.13;102061.47;5073218;28;20053;-57
2021/06/10 07:59:53;;;;;;;4.93;2.47;;;;;;;22.89;47.32;102069.22;5072702;28;20407;-57
2021/06/10 08:02:18;;;;;;;4.68;2.60;;;;;;;22.90;47.28;102068.22;5072888;28;20020;-58
2021/06/10 08:04:43;;;;;;;5.63;2.60;;;;;;;22.91;47.43;102064.59;5073410;28;20514;-58
2021/06/10 08:07:11;;;;;;;5.53;2.38;;;;;;;22.92;47.47;102074.28;5072418;28;20280;-59
2021/06/10 08:09:39;;;;;;;3.65;2.13;;;;;;;22.94;47.45;102071.44;5072906;28;20124;-59
2021/06/10 08:12:05;;;;;;;4.38;2.03;;;;;;;22.94;47.36;102069.66;5072482;28;20480;-58
2021/06/10 08:14:31;;;;;;;5.80;2.50;;;;;;;22.93;47.51;102069.78;5071984;28;20119;-58
2021/06/10 08:16:56;;;;;;;3.78;2.20;;;;;;;22.96;47.65;102072.19;5072919;28;20017;-59
2021/06/10 08:19:21;;;;;;;4.65;2.60;;;;;;;22.95;47.70;102062.53;5071999;28;20025;-58
2021/06/10 08:21:47;;;;;;;5.03;2.65;;;;;;;22.96;47.90;102064.22;5073148;28;20028;-59
2021/06/10 08:24:14;;;;;;;5.78;2.50;;;;;;;22.96;47.44;102064.22;5072648;28;20030;-58
2021/06/10 08:26:41;;;;;;;4.55;2.45;;;;;;;22.94;47.61;102061.69;5072166;28;20033;-59
2021/06/10 08:29:06;;;;;;;4.68;2.53;;;;;;;22.97;47.56;102065.88;5072455;28;20016;-58
2021/06/10 08:31:32;;;;;;;5.88;2.65;;;;;;;22.97;47.51;102063.22;5072736;28;20029;-58
2021/06/10 08:34:00;;;;;;;4.20;2.30;;;;;;;22.97;47.69;102066.75;5072184;28;20031;-59
2021/06/10 08:36:25;;;;;;;5.07;2.30;;;;;;;22.97;47.73;102060.56;5072522;28;20058;-59
2021/06/10 08:38:51;;;;;;;5.20;2.72;;;;;;;22.98;47.62;102071.06;5072637;28;20480;-59
2021/06/10 08:41:17;;;;;;;6.40;2.40;;;;;;;22.98;47.67;102065.75;5071437;28;20017;-59
2021/06/10 08:43:43;;;;;;;4.10;2.30;;;;;;;22.99;47.79;102061.31;5072338;28;20027;-59
2021/06/10 08:46:13;;;;;;;4.82;2.30;;;;;;;23.00;47.72;102060.31;5072163;28;20111;-59
2021/06/10 08:48:40;;;;;;;4.40;2.40;;;;;;;22.99;47.83;102050.66;5071261;28;20122;-58
2021/06/10 08:51:08;;;;;;;4.47;2.60;;;;;;;22.98;47.82;102054.28;5072313;28;20032;-59
2021/06/10 08:53:34;;;;;;;5.50;2.67;;;;;;;23.00;47.81;102055.00;5072440;28;20028;-59
2021/06/10 08:56:00;;;;;;;4.80;2.28;;;;;;;23.00;47.74;102047.88;5071745;28;20028;-59
2021/06/10 08:58:27;;;;;;;4.35;1.98;;;;;;;23.00;48.00;102055.00;5072037;28;20472;-59
2021/06/10 09:00:54;;;;;;;3.70;2.10;;;;;;;23.01;47.86;102060.19;5072469;28;20031;-58
2021/06/10 09:03:32;;;;;;;3.60;2.20;;;;;;;23.01;47.78;102065.50;5070988;28;20115;-59
2021/06/10 09:06:16;;;;;;;4.85;2.55;;;;;;;23.02;47.77;102063.72;5072365;28;20033;-59
2021/06/10 09:08:43;;;;;;;6.20;2.30;;;;;;;23.01;47.92;102060.19;5071202;28;20080;-57
2021/06/10 09:11:26;;;;;;;3.80;2.33;;;;;;;23.01;47.83;102070.81;5130662;27;20733;-58
2021/06/10 09:13:55;;;;;;;4.47;2.30;;;;;;;23.04;47.75;102072.41;5130467;28;20028;-58
2021/06/10 09:16:31;;;;;;;4.25;2.35;;;;;;;23.04;47.95;102068.91;5129437;28;20024;-58
2021/06/10 09:19:13;;;;;;;4.00;2.35;;;;;;;23.04;47.90;102064.41;5130375;28;20028;-58
2021/06/10 09:21:43;;;;;;;5.03;2.50;;;;;;;23.05;47.92;102063.47;5130374;28;20030;-57
2021/06/10 09:24:29;;;;;;;5.45;2.40;;;;;;;23.05;47.92;102062.59;5129095;28;20019;-58
2021/06/10 09:26:57;;;;;;;4.30;2.30;;;;;;;23.05;47.96;102063.47;5130190;28;20042;-58
2021/06/10 09:29:41;;;;;;;4.85;2.30;;;;;;;23.06;47.81;102069.59;5129634;28;20020;-58
2021/06/10 09:32:17;;;;;;;3.77;2.30;;;;;;;23.06;48.03;102072.28;5129573;28;20043;-57
2021/06/10 09:34:47;;;;;;;4.75;2.35;;;;;;;23.05;47.75;102058.13;5130309;28;20363;-57
2021/06/10 09:37:14;;;;;;;3.50;2.17;;;;;;;23.05;47.69;102063.47;5128986;28;20027;-58
2021/06/10 09:39:53;;;;;;;3.80;2.20;;;;;;;23.04;47.90;102056.44;5129899;28;20046;-58
2021/06/10 09:42:23;;;;;;;4.03;2.28;;;;;;;23.05;47.71;102066.13;5111118;28;20176;-58
2021/06/10 09:45:01;;;;;;;4.05;2.40;;;;;;;23.06;47.82;102064.28;5129254;28;20102;-58
2021/06/10 09:47:28;;;;;;;3.97;2.20;;;;;;;23.06;47.82;102059.81;5129590;28;20015;-58
2021/06/10 09:49:54;;;;;;;3.95;2.33;;;;;;;23.06;47.70;102066.94;5129723;28;20524;-58
2021/06/10 09:52:20;;;;;;;4.22;2.17;;;;;;;23.07;47.91;102066.00;5129044;28;20039;-59
2021/06/10 09:54:52;;;;;;;3.60;2.20;;;;;;;23.06;47.69;102062.47;5129540;28;20481;-59
2021/06/10 09:57:18;;;;;;;4.32;2.30;;;;;;;23.07;47.82;102066.00;5129396;28;20076;-59
2021/06/10 09:59:52;;;;;;;3.95;2.30;;;;;;;23.06;47.65;102074.94;5128859;28;20099;-59
2021/06/10 10:02:27;;;;;;;;;;;;;;;23.06;47.71;102064.28;5129491;28;20023;-57
2021/06/10 10:05:03;;;;;;;3.50;2.20;;;;;;;23.06;47.35;102075.75;5128764;28;20367;-58
2021/06/10 10:07:30;;;;;;;3.20;2.08;;;;;;;23.06;47.77;102064.28;5129661;28;20106;-57
2021/06/10 10:09:57;;;;;;;3.42;2.10;;;;;;;23.05;47.71;102067.91;5129749;28;20048;-58
2021/06/10 10:12:25;;;;;;;4.15;2.20;;;;;;;23.06;47.50;102066.94;5128804;28;20462;-57
2021/06/10 10:14:50;;;;;;;3.85;2.38;;;;;;;23.06;47.63;102065.13;5129333;28;20110;-57
2021/06/10 10:17:21;;;;;;;4.00;2.30;;;;;;;23.06;47.59;102059.81;5128794;28;20053;-58
2021/06/10 10:19:46;;;;;;;5.40;2.30;;;;;;;23.06;47.38;102064.28;5128402;28;20027;-58
2021/06/10 10:22:13;;;;;;;3.80;2.30;;;;;;;23.07;47.42;102060.66;5117576;28;20093;-58
2021/06/10 10:24:39;;;;;;;3.65;2.00;;;;;;;23.07;47.32;102060.66;5115299;28;20452;-59
2021/06/10 10:27:09;;;;;;;4.05;2.25;;;;;;;23.09;47.53;102064.06;5114335;28;20027;-59
2021/06/10 10:29:35;;;;;;;4.28;2.20;;;;;;;23.08;47.21;102065.03;5115266;28;20115;-58
2021/06/10 10:32:00;;;;;;;5.82;4.13;;;;;;;23.08;47.14;102070.34;5115240;28;20051;-59
2021/06/10 10:34:29;;;;;;;8.98;7.88;;;;;;;23.06;47.70;102065.13;5113959;28;20028;-58
2021/06/10 10:36:54;;;;;;;9.93;8.95;;;;;;;23.09;47.87;102067.56;5115058;28;20495;-59
2021/06/10 10:39:33;;;;;;;9.95;8.95;;;;;;;23.11;48.26;102064.78;5114814;28;20032;-59
2021/06/10 10:41:59;;;;;;;12.77;8.93;;;;;;;23.14;48.24;102064.53;5114332;28;20031;-59
2021/06/10 10:44:29;;;;;;;11.20;10.20;;;;;;;23.15;48.24;102059.06;5114514;28;20382;-58
2021/06/10 10:47:13;;;;;;;11.25;10.05;;;;;;;23.17;48.35;102059.78;5114104;28;20047;-59
2021/06/10 10:49:51;;;;;;;10.73;9.63;;;;;;;23.17;48.11;102051.81;5114850;28;20038;-59
2021/06/10 10:52:21;;;;;;;9.00;8.10;;;;;;;23.18;48.17;102048.19;5114432;28;20020;-58
2021/06/10 10:54:49;;;;;;;9.57;7.82;;;;;;;23.18;47.74;102058.81;5114010;28;20072;-59
2021/06/10 10:57:36;;;;;;;7.80;6.95;;;;;;;23.20;47.66;102056.03;5114306;28;20028;-58
2021/06/10 11:00:03;;;;;;;7.90;7.00;;;;;;;23.20;47.87;102052.53;5097612;28;20035;-58
2021/06/10 11:02:29;;;;;;;8.32;6.88;;;;;;;23.20;47.74;102047.22;5113842;28;20479;-59
2021/06/10 11:04:59;;;;;;;7.65;6.18;;;;;;;23.19;47.81;102046.34;5114411;28;20035;-58
2021/06/10 11:07:37;;;;;;;7.53;6.10;;;;;;;23.18;47.82;102048.19;5114219;28;20039;-59
2021/06/10 11:10:04;;;;;;;9.32;6.43;;;;;;;23.19;47.92;102049.00;5113158;28;20070;-59
2021/06/10 11:12:44;;;;;;;8.70;5.82;;;;;;;23.19;47.92;102049.00;5114226;28;20514;-58
2021/06/10 11:15:31;;;;;;;6.82;5.72;;;;;;;23.18;47.88;102039.38;5113107;28;20034;-58
2021/06/10 11:18:02;;;;;;;7.97;5.63;;;;;;;23.15;47.94;102045.78;5114404;28;20024;-58
2021/06/10 11:20:37;;;;;;;7.75;5.18;;;;;;;23.18;47.82;102047.34;5114401;28;20019;-58
2021/06/10 11:23:25;;;;;;;6.97;5.45;;;;;;;23.16;47.58;102036.84;5113180;28;20071;-58
2021/06/10 11:25:52;;;;;;;6.35;5.07;;;;;;;23.16;47.39;102039.50;5114031;28;20137;-57
2021/06/10 11:28:20;;;;;;;6.05;4.60;;;;;;;23.16;47.17;102042.16;5113773;28;20027;-56